Airfield :
LOGIN :

Register | Disclaimer

   EN    FR    IT 

 










Legend :    VFR   Marginal VFR   IFR   Intensive IFR   Very Intensive IFR
Visi :
Ceiling :
>= 8 km
>= 3000ft
5 to 8 km
1000 to 3000 ft
1500m to 5 km
500 to 1000 ft
800 to 1500m
200 to 500 ft
< 800m
< 200 ft
Symbols :   Thunderstorms  Fog  Heavy snow  Heavy precipitations  Wind > 20 kt
SIGMETs :     Misc.  Thunderstorms  Icing  Turbulence  Mountain Waves  Volcanic Ashes







- Airport Elevation : 863 ft
- IATA code : ZAZ


LEZG - Zaragoza Aragon

CURRENT METAR :
  • 150700Z 24004KT 9999 FEW075 18/14 Q1023

EXPIRED METARs :
  • 150630Z 26003KT 230V290 9999 FEW075 17/13 Q1023
  • 150600Z 24005KT 200V280 9999 FEW070 17/12 Q1023
  • 150530Z 23004KT 9999 FEW060 SCT085 16/12 Q1023
  • 150500Z 23006KT 9999 FEW060 SCT085 16/12 Q1023
  • 150430Z 21002KT 9999 FEW060 SCT085 16/13 Q1022

TAF TAF LEZG
Valid from the 15 at 06:00 until the 16 at 06:00 UTC


150500Z 1506/1606 11006KT 9999 SCT050 TX26/1514Z TN17/1606Z
TEMPO 1513/1518 11012G22KT
PROB30
TEMPO 1515/1524 TSRA FEW040CB BKN050
No reported NOTAMs for that airfield.



MET'MAP, your aeronautical weather chart ! - Copyright ORBIFLY December 2007 - Disclaimer

ORBIFLY MET'MAP TEAM :

Programming & Development : Alexandra Zaïnal
Concept & Development : Baudouin d'Aumeries
Co-Development & Prog : Marc-Olivier Méhu
Technical & hardware support : Manuel Goepfert

Contact : metmap@orbifly.com




SOURCES & CREDITS :

   NOAA